Ashton, IL (61006)

7:06 AM CDT on August 28, 2016 (GMT -0500)
MesoWest | | Change Station
Active Advisory: Special Statement

Elev 782 ft 41.90 °N, 89.13 °W | Updated 3 hours ago

Clear
Clear
71.0 °F
Feels Like 71.0 °F
N
0.0
Wind Variable Wind from North
Gusts 0.0 mph

Today
High -- | Low -- °F
--% Chance of Precip.
Yesterday
High -- | Low -- °F
Precip. -- in
Pressure 30.17 in
Visibility 2.5 miles
Clouds Clear
Dew Point Not available.
Humidity Not available.
Rainfall in
Snow Depth Not available.
6:18 AM 7:35 PM
Waning Crescent, 16% visible
METAR KRPJ 281155Z AUTO 00000KT 2 1/2SM BR CLR 19/19 A3017 RMK AO2 70020 T01930193 10216 20185
Pressure 30.17 in
Visibility 2.5 miles
Clouds Clear
Dew Point Not available.
Humidity Not available.
Rainfall in
Snow Depth Not available.
6:18 AM 7:35 PM
Waning Crescent, 16% visible
METAR KRPJ 281155Z AUTO 00000KT 2 1/2SM BR CLR 19/19 A3017 RMK AO2 70020 T01930193 10216 20185

10-Day Weather Forecast

Almanac

Astronomy

Aug. 28, 2016 Rise Set
Actual Time
Civil Twilight
Nautical Twilight
Astronomical Twilight
Moon
Length of Visible Light
Length of Day
Tomorrow will be .
, % of the Moon is Illuminated

Today's Extremes

State Highs State Lows

Community

WunderPhotos

Upload Photos

1,935,552 photos uploaded!

WunderBlog® & News

Nearby

Air Quality

  Air Quality AQ Index Pollutant
Not available.

Snow Depth

Station Depth Elevation

Earthquake Activity

City Distance Mag. Time & Date
Minimum magnitude displayed is 2.5.

Coastal Water Temperatures

Place Temperature

Stations

Nearby Weather Stations

Station Location Temp. Windchill Dew Point Humidity Wind Precip. Elev Updated Type
                   

Watches & Warnings

Special Statement
Issued: 4:01 AM CDT Aug. 28, 2016 – National Weather Service

... Fog developing across portions of northern Illinois...

Fog will continue to develop early this morning across portions of
northern Illinois. Visibility in some areas has already been
reduced to half a mile... and some fog prone areas may develop
dense fog with visibility of a quarter mile or less. Motorists
should use caution and be prepared for quickly changing
visibility.


Bmd